createdAt,value
2022-10-29T00:02:02.204Z,4.10
2022-10-29T00:04:29.025Z,3.30
2022-10-29T00:06:55.802Z,4.23
2022-10-29T00:09:22.528Z,5.10
2022-10-29T00:11:49.297Z,4.37
2022-10-29T00:14:16.846Z,4.57
2022-10-29T00:16:43.516Z,5.37
2022-10-29T00:19:10.351Z,3.57
2022-10-29T00:21:38.094Z,4.00
2022-10-29T00:24:05.378Z,4.30
2022-10-29T00:26:32.222Z,4.03
2022-10-29T00:28:58.960Z,3.70
2022-10-29T00:31:25.930Z,3.90
2022-10-29T00:33:54.628Z,4.00
2022-10-29T00:36:24.055Z,4.73
2022-10-29T00:38:51.088Z,3.57
2022-10-29T00:41:21.280Z,2.53
2022-10-29T00:43:51.260Z,3.13
2022-10-29T00:46:34.475Z,3.27
2022-10-29T00:49:02.464Z,4.17
2022-10-29T00:51:31.769Z,2.97
2022-10-29T00:54:08.764Z,3.50
2022-10-29T00:56:38.918Z,3.53
2022-10-29T00:59:07.559Z,4.00
2022-10-29T01:01:35.030Z,3.70
2022-10-29T01:04:02.908Z,4.10
2022-10-29T01:06:31.369Z,3.37
2022-10-29T01:08:58.025Z,4.40
2022-10-29T01:11:45.632Z,3.83
2022-10-29T01:14:35.538Z,3.70
2022-10-29T01:17:18.399Z,3.70
2022-10-29T01:20:21.894Z,4.43
2022-10-29T01:23:16.235Z,2.90
2022-10-29T01:26:14.264Z,2.60
2022-10-29T01:29:18.737Z,3.23
2022-10-29T01:32:06.480Z,4.40
2022-10-29T01:34:56.675Z,3.43
2022-10-29T01:37:26.133Z,3.10
2022-10-29T01:40:17.508Z,3.40
2022-10-29T01:42:52.946Z,3.00
2022-10-29T01:45:27.063Z,3.00
2022-10-29T01:48:01.403Z,3.10
2022-10-29T01:50:29.067Z,3.57
2022-10-29T01:52:56.914Z,4.10
2022-10-29T01:55:30.487Z,3.10
2022-10-29T01:57:57.698Z,2.77
2022-10-29T02:00:25.593Z,3.37
2022-10-29T02:03:09.698Z,3.10
2022-10-29T02:05:45.744Z,3.17
2022-10-29T02:08:44.744Z,3.03
2022-10-29T02:11:14.283Z,3.27
2022-10-29T02:13:49.260Z,3.60
2022-10-29T02:16:17.451Z,2.93
2022-10-29T02:18:47.459Z,3.30
2022-10-29T02:21:18.654Z,3.70
2022-10-29T02:23:45.392Z,3.40
2022-10-29T02:26:12.558Z,3.50
2022-10-29T02:28:39.231Z,3.50
2022-10-29T02:31:06.257Z,3.30
2022-10-29T02:33:33.133Z,4.20
2022-10-29T02:35:59.811Z,3.43
2022-10-29T02:38:26.539Z,3.50
2022-10-29T02:40:53.222Z,3.40
2022-10-29T02:46:09.284Z,3.13
2022-10-29T02:48:35.962Z,2.70
2022-10-29T02:51:02.652Z,2.83
2022-10-29T02:53:29.320Z,3.20
2022-10-29T02:55:56.020Z,3.97
2022-10-29T02:58:22.760Z,2.93
2022-10-29T03:00:50.439Z,2.90
2022-10-29T03:03:17.204Z,3.80
2022-10-29T03:05:48.121Z,3.10
2022-10-29T03:08:16.248Z,3.73
2022-10-29T03:10:43.121Z,2.83
2022-10-29T03:13:10.330Z,3.13
2022-10-29T03:15:37.469Z,3.20
2022-10-29T03:18:05.047Z,3.13
2022-10-29T03:20:32.038Z,3.47
2022-10-29T03:22:58.767Z,3.20
2022-10-29T03:25:25.412Z,3.37
2022-10-29T03:27:52.093Z,2.93
2022-10-29T03:30:18.932Z,3.10
2022-10-29T03:32:47.094Z,4.03
2022-10-29T03:35:15.263Z,3.43
2022-10-29T03:37:42.131Z,3.20
2022-10-29T03:40:09.314Z,3.43
2022-10-29T03:42:36.220Z,3.70
2022-10-29T03:45:03.008Z,4.00
2022-10-29T03:47:29.799Z,2.63
2022-10-29T03:49:56.484Z,3.23
2022-10-29T03:52:23.194Z,3.63
2022-10-29T03:54:49.885Z,3.97
2022-10-29T03:57:16.622Z,3.30
2022-10-29T03:59:45.886Z,4.00
2022-10-29T04:02:15.306Z,3.10
2022-10-29T04:04:42.008Z,3.03
2022-10-29T04:07:08.700Z,3.97
2022-10-29T04:09:35.355Z,3.40
2022-10-29T04:12:03.311Z,2.87
2022-10-29T04:14:30.103Z,3.20
2022-10-29T04:16:58.525Z,3.80
2022-10-29T04:19:25.211Z,3.03
2022-10-29T04:24:12.183Z,3.47
2022-10-29T04:32:40.188Z,3.20
2022-10-29T04:35:07.229Z,2.77
2022-10-29T04:37:33.977Z,3.47
2022-10-29T04:40:00.632Z,3.03
2022-10-29T04:42:27.320Z,3.27
2022-10-29T04:44:54.123Z,3.00
2022-10-29T04:47:20.945Z,3.03
2022-10-29T04:49:47.616Z,2.63
2022-10-29T04:52:14.350Z,3.37
2022-10-29T04:54:41.144Z,3.20
2022-10-29T04:57:07.827Z,2.73
2022-10-29T04:59:34.679Z,3.23
2022-10-29T05:02:01.385Z,3.00
2022-10-29T05:04:29.528Z,2.57
2022-10-29T05:06:56.223Z,3.23
2022-10-29T05:09:23.039Z,3.30
2022-10-29T05:11:49.923Z,2.40
2022-10-29T05:14:16.651Z,2.60
2022-10-29T05:16:43.429Z,2.60
2022-10-29T05:19:10.167Z,2.30
2022-10-29T05:21:36.856Z,2.10
2022-10-29T05:24:03.758Z,3.13
2022-10-29T05:26:32.389Z,2.90
2022-10-29T05:28:59.113Z,2.77
2022-10-29T05:31:25.797Z,3.17
2022-10-29T05:33:55.534Z,2.53
2022-10-29T05:36:22.940Z,2.63
2022-10-29T05:38:49.790Z,2.63
2022-10-29T05:41:17.129Z,4.30
2022-10-29T05:43:43.813Z,3.00
2022-10-29T05:46:10.655Z,3.17
2022-10-29T05:48:37.340Z,3.00
2022-10-29T05:51:04.501Z,3.03
2022-10-29T05:53:31.219Z,3.00
2022-10-29T05:55:59.018Z,2.30
2022-10-29T05:58:25.779Z,2.90
2022-10-29T06:00:52.462Z,3.03
2022-10-29T06:03:21.139Z,2.53
2022-10-29T06:05:48.696Z,3.20
2022-10-29T06:08:15.776Z,3.30
2022-10-29T06:10:42.902Z,3.30
2022-10-29T06:13:13.974Z,2.40
2022-10-29T06:15:40.842Z,3.50
2022-10-29T06:18:08.065Z,3.50
2022-10-29T06:20:34.839Z,3.90
2022-10-29T06:23:01.548Z,3.60
2022-10-29T06:25:28.783Z,3.37
2022-10-29T06:28:03.667Z,3.57
2022-10-29T06:30:31.609Z,3.50
2022-10-29T06:32:59.666Z,3.67
2022-10-29T06:35:26.804Z,3.87
2022-10-29T06:37:53.872Z,3.10
2022-10-29T06:40:20.789Z,3.27
2022-10-29T06:42:47.536Z,3.17
2022-10-29T06:45:14.581Z,4.10
2022-10-29T06:47:41.273Z,3.40
2022-10-29T06:50:09.270Z,3.60
2022-10-29T06:52:37.604Z,3.57
2022-10-29T06:55:05.706Z,3.20
2022-10-29T06:57:32.627Z,3.43
2022-10-29T07:00:03.679Z,4.80
2022-10-29T07:02:34.147Z,3.00
2022-10-29T07:05:00.949Z,3.50
2022-10-29T07:07:29.195Z,3.83
2022-10-29T07:09:55.953Z,3.13
2022-10-29T07:12:22.611Z,3.70
2022-10-29T07:14:49.437Z,3.10
2022-10-29T07:17:16.083Z,3.60
2022-10-29T07:19:42.758Z,4.37
2022-10-29T07:22:09.424Z,3.83
2022-10-29T07:24:36.124Z,4.00
2022-10-29T07:27:02.912Z,4.43
2022-10-29T07:29:29.581Z,4.30
2022-10-29T07:31:56.250Z,4.90
2022-10-29T07:34:22.946Z,3.83
2022-10-29T07:36:49.679Z,3.30
2022-10-29T07:39:16.438Z,3.73
2022-10-29T07:41:43.113Z,4.00
2022-10-29T07:44:09.771Z,3.60
2022-10-29T07:46:36.501Z,3.57
2022-10-29T07:49:03.332Z,3.63
2022-10-29T07:51:30.013Z,3.77
2022-10-29T07:53:56.687Z,3.40
2022-10-29T07:56:23.422Z,3.90
2022-10-29T07:58:50.166Z,4.30
2022-10-29T08:01:17.027Z,4.50
2022-10-29T08:03:43.811Z,3.73
2022-10-29T08:06:10.495Z,3.90
2022-10-29T08:08:37.812Z,3.57
2022-10-29T08:11:05.227Z,3.80
2022-10-29T08:13:31.950Z,3.93
2022-10-29T08:15:58.712Z,4.10
2022-10-29T08:18:25.489Z,4.33
2022-10-29T08:20:52.303Z,4.00
2022-10-29T08:23:19.108Z,4.43
2022-10-29T08:25:45.866Z,4.10
2022-10-29T08:28:15.242Z,4.10
2022-10-29T08:30:45.780Z,4.80
2022-10-29T08:33:12.597Z,5.10
2022-10-29T08:35:39.359Z,4.77
2022-10-29T08:38:06.208Z,4.63
2022-10-29T08:41:02.646Z,4.43
2022-10-29T08:44:00.343Z,4.87
2022-10-29T08:46:50.452Z,4.40
2022-10-29T08:49:52.657Z,5.37
2022-10-29T08:52:27.397Z,6.40
2022-10-29T08:55:14.782Z,4.73
2022-10-29T08:57:47.709Z,4.90
2022-10-29T09:00:19.092Z,4.80
2022-10-29T09:02:46.148Z,4.70
2022-10-29T09:05:15.564Z,4.97
2022-10-29T09:08:02.317Z,4.30
2022-10-29T09:10:34.521Z,4.83
2022-10-29T09:13:27.853Z,5.23
2022-10-29T09:16:13.113Z,4.93
2022-10-29T09:18:42.563Z,5.30
2022-10-29T09:21:43.662Z,4.87
2022-10-29T09:24:10.374Z,5.03
2022-10-29T09:26:49.074Z,5.50
2022-10-29T09:29:37.581Z,4.03
2022-10-29T09:32:13.678Z,5.07
2022-10-29T09:34:40.312Z,4.70
2022-10-29T09:37:27.867Z,4.20
2022-10-29T09:39:57.149Z,5.00
2022-10-29T09:42:35.544Z,5.20
2022-10-29T09:45:05.834Z,5.50
2022-10-29T09:48:00.961Z,6.17
2022-10-29T09:50:33.927Z,6.30
2022-10-29T09:53:00.813Z,5.60
2022-10-29T09:55:34.250Z,5.83
2022-10-29T09:58:01.115Z,5.90
2022-10-29T10:00:30.289Z,5.13
2022-10-29T10:03:06.239Z,5.93
2022-10-29T10:05:36.983Z,6.67
2022-10-29T10:08:08.552Z,10.70
2022-10-29T10:10:39.424Z,10.03
2022-10-29T10:13:16.790Z,10.70
2022-10-29T10:15:55.191Z,11.53
2022-10-29T10:18:27.638Z,9.63
2022-10-29T10:21:07.494Z,9.30
2022-10-29T10:23:44.982Z,7.53
2022-10-29T10:26:30.925Z,5.57
2022-10-29T10:29:16.842Z,7.17
2022-10-29T10:32:11.150Z,6.57
2022-10-29T10:34:39.229Z,6.00
2022-10-29T10:37:10.705Z,6.60
2022-10-29T10:39:40.060Z,5.77
2022-10-29T10:42:24.192Z,7.43
2022-10-29T10:44:54.439Z,6.70
2022-10-29T10:47:25.299Z,5.20
2022-10-29T10:49:52.333Z,5.70
2022-10-29T10:52:26.408Z,5.93
2022-10-29T10:54:58.277Z,6.00
2022-10-29T10:57:28.670Z,5.60
2022-10-29T11:00:07.547Z,7.10
2022-10-29T11:02:39.697Z,6.83
2022-10-29T11:05:37.657Z,5.93
2022-10-29T11:08:16.413Z,6.17
2022-10-29T11:10:52.352Z,5.93
2022-10-29T11:13:22.998Z,6.33
2022-10-29T11:15:56.939Z,5.50
2022-10-29T11:18:34.758Z,5.40
2022-10-29T11:21:32.989Z,5.13
2022-10-29T11:24:13.787Z,5.47
2022-10-29T11:27:05.846Z,4.90
2022-10-29T11:29:47.325Z,4.80
2022-10-29T11:32:23.700Z,3.97
2022-10-29T11:35:04.565Z,4.27
2022-10-29T11:37:56.399Z,5.80
2022-10-29T11:40:24.724Z,5.60
2022-10-29T11:42:51.549Z,5.07
2022-10-29T11:45:30.326Z,4.47
2022-10-29T11:48:26.058Z,4.43
2022-10-29T11:51:40.145Z,4.23
2022-10-29T11:54:30.608Z,5.80
2022-10-29T11:57:02.931Z,5.20
2022-10-29T11:59:38.396Z,5.70
2022-10-29T12:02:21.893Z,5.40
2022-10-29T12:05:24.073Z,4.40
2022-10-29T12:08:05.735Z,5.23
2022-10-29T12:10:38.617Z,5.03
2022-10-29T12:13:29.050Z,5.07
2022-10-29T12:16:12.550Z,6.17
2022-10-29T12:18:55.944Z,5.20
2022-10-29T12:21:31.809Z,4.60
2022-10-29T12:24:16.611Z,4.50
2022-10-29T12:26:48.409Z,5.07
2022-10-29T12:29:25.998Z,5.17
2022-10-29T12:32:06.464Z,4.30
2022-10-29T12:34:41.907Z,5.00
2022-10-29T12:37:40.740Z,3.90
2022-10-29T12:40:22.574Z,4.20
2022-10-29T12:42:50.790Z,4.80
2022-10-29T12:45:34.793Z,4.43
2022-10-29T12:48:24.321Z,4.00
2022-10-29T12:51:07.405Z,3.77
2022-10-29T12:54:02.246Z,4.17
2022-10-29T12:56:30.045Z,4.00
2022-10-29T12:58:59.646Z,3.37
2022-10-29T13:01:38.299Z,3.50
2022-10-29T13:04:23.040Z,3.33
2022-10-29T13:07:04.555Z,3.20
2022-10-29T13:09:36.626Z,3.60
2022-10-29T13:12:11.024Z,4.20
2022-10-29T13:14:37.675Z,4.10
2022-10-29T13:17:18.200Z,4.13
2022-10-29T13:19:56.131Z,3.50
2022-10-29T13:22:54.523Z,3.60
2022-10-29T13:25:33.344Z,4.60
2022-10-29T13:28:01.115Z,3.63
2022-10-29T13:30:29.150Z,4.57
2022-10-29T13:32:56.494Z,4.83
2022-10-29T13:35:26.765Z,3.93
2022-10-29T13:38:10.458Z,4.00
2022-10-29T13:40:41.503Z,3.10
2022-10-29T13:43:18.330Z,3.50
2022-10-29T13:46:20.202Z,4.60
2022-10-29T13:48:48.288Z,3.53
2022-10-29T13:51:20.606Z,3.50
2022-10-29T13:53:52.578Z,3.90
2022-10-29T13:57:06.963Z,3.83
2022-10-29T13:59:45.463Z,3.57
2022-10-29T14:02:36.873Z,3.90
2022-10-29T14:05:15.651Z,4.87
2022-10-29T14:08:13.404Z,5.03
2022-10-29T14:10:40.035Z,4.20
2022-10-29T14:13:24.892Z,4.93
2022-10-29T14:16:24.711Z,3.77
2022-10-29T14:18:51.507Z,4.63
2022-10-29T14:21:36.534Z,3.70
2022-10-29T14:28:17.530Z,4.17
2022-10-29T14:30:58.157Z,4.40
2022-10-29T14:33:27.272Z,4.73
2022-10-29T14:36:07.961Z,4.40
2022-10-29T14:38:44.406Z,4.40
2022-10-29T14:41:12.198Z,4.80
2022-10-29T14:43:39.657Z,4.10
2022-10-29T14:46:27.431Z,4.70
2022-10-29T14:48:59.453Z,4.30
2022-10-29T14:51:26.849Z,5.63
2022-10-29T14:53:58.187Z,5.00
2022-10-29T14:56:31.687Z,8.20
2022-10-29T14:58:58.973Z,4.50
2022-10-29T15:01:25.743Z,4.83
2022-10-29T15:04:01.824Z,4.37
2022-10-29T15:06:30.002Z,5.10
2022-10-29T15:09:03.478Z,5.57
2022-10-29T15:11:57.478Z,5.07
2022-10-29T15:15:06.820Z,4.80
2022-10-29T15:17:34.371Z,4.77
2022-10-29T15:20:06.805Z,4.30
2022-10-29T15:22:37.466Z,3.97
2022-10-29T15:25:14.719Z,5.23
2022-10-29T15:27:42.659Z,4.67
2022-10-29T15:30:27.397Z,5.80
2022-10-29T15:32:59.547Z,4.87
2022-10-29T15:35:26.485Z,5.17
2022-10-29T15:37:53.326Z,5.30
2022-10-29T15:40:22.030Z,4.13
2022-10-29T15:42:48.992Z,5.30
2022-10-29T15:45:25.272Z,4.40
2022-10-29T15:48:28.470Z,4.50
2022-10-29T15:50:57.545Z,5.57
2022-10-29T15:53:24.238Z,5.10
2022-10-29T15:55:54.058Z,5.07
2022-10-29T15:58:23.302Z,5.10
2022-10-29T16:00:51.153Z,5.07
2022-10-29T16:03:23.514Z,5.97
2022-10-29T16:05:55.982Z,4.80
2022-10-29T16:08:34.234Z,5.20
2022-10-29T16:11:03.110Z,5.13
2022-10-29T16:13:30.463Z,5.00
2022-10-29T16:15:57.207Z,5.23
2022-10-29T16:18:24.223Z,4.67
2022-10-29T16:20:56.673Z,5.47
2022-10-29T16:23:23.400Z,5.30
2022-10-29T16:25:50.051Z,4.93
2022-10-29T16:28:16.815Z,5.90
2022-10-29T16:30:50.883Z,4.97
2022-10-29T16:33:18.984Z,5.67
2022-10-29T16:35:45.990Z,4.93
2022-10-29T16:38:12.693Z,4.77
2022-10-29T16:40:39.815Z,4.60
2022-10-29T16:43:06.464Z,4.93
2022-10-29T16:45:33.101Z,4.57
2022-10-29T16:48:00.080Z,5.60
2022-10-29T16:50:34.208Z,5.20
2022-10-29T16:53:11.064Z,4.97
2022-10-29T16:55:39.844Z,5.90
2022-10-29T16:58:09.028Z,6.37
2022-10-29T17:00:36.694Z,6.90
2022-10-29T17:03:09.920Z,6.97
2022-10-29T17:05:40.639Z,6.60
2022-10-29T17:08:07.480Z,5.10
2022-10-29T17:10:34.818Z,4.83
2022-10-29T17:13:02.153Z,4.90
2022-10-29T17:15:29.140Z,5.10
2022-10-29T17:17:56.057Z,6.47
2022-10-29T17:20:22.891Z,5.73
2022-10-29T17:22:49.563Z,5.63
2022-10-29T17:25:16.247Z,5.80
2022-10-29T17:27:43.045Z,4.63
2022-10-29T17:30:11.089Z,4.97
2022-10-29T17:32:38.022Z,5.87
2022-10-29T17:35:05.006Z,5.00
2022-10-29T17:37:31.886Z,4.87
2022-10-29T17:40:02.947Z,5.73
2022-10-29T17:42:33.756Z,5.43
2022-10-29T17:45:00.418Z,6.53
2022-10-29T17:47:27.206Z,6.30
2022-10-29T17:49:54.011Z,5.30
2022-10-29T17:52:20.651Z,5.33
2022-10-29T17:54:47.294Z,5.23
2022-10-29T17:57:13.930Z,4.60
2022-10-29T17:59:40.554Z,4.80
2022-10-29T18:02:10.772Z,4.73
2022-10-29T18:04:37.507Z,5.33
2022-10-29T18:07:04.200Z,4.57
2022-10-29T18:09:31.037Z,5.47
2022-10-29T18:11:57.698Z,4.33
2022-10-29T18:14:24.360Z,5.20
2022-10-29T18:16:51.018Z,5.43
2022-10-29T18:19:17.810Z,5.73
2022-10-29T18:21:44.642Z,5.37
2022-10-29T18:24:11.335Z,4.80
2022-10-29T18:26:38.054Z,5.03
2022-10-29T18:29:11.646Z,4.80
2022-10-29T18:31:42.080Z,5.13
2022-10-29T18:34:09.730Z,5.63
2022-10-29T18:36:36.555Z,4.70
2022-10-29T18:39:05.453Z,5.30
2022-10-29T18:41:32.362Z,5.47
2022-10-29T18:43:59.533Z,5.40
2022-10-29T18:46:26.498Z,5.03
2022-10-29T18:48:53.681Z,4.53
2022-10-29T18:51:31.949Z,4.90
2022-10-29T18:53:59.446Z,5.60
2022-10-29T18:56:27.439Z,5.10
2022-10-29T18:58:57.615Z,4.27
2022-10-29T19:01:31.366Z,4.50
2022-10-29T19:04:01.640Z,5.20
2022-10-29T19:06:30.392Z,4.30
2022-10-29T19:08:59.137Z,5.77
2022-10-29T19:11:26.362Z,6.10
2022-10-29T19:13:55.316Z,5.20
2022-10-29T19:16:22.664Z,4.30
2022-10-29T19:18:58.157Z,4.83
2022-10-29T19:21:25.884Z,4.30
2022-10-29T19:24:00.279Z,5.30
2022-10-29T19:26:29.203Z,6.20
2022-10-29T19:28:56.007Z,5.60
2022-10-29T19:31:28.147Z,5.87
2022-10-29T19:33:57.281Z,6.23
2022-10-29T19:36:24.904Z,5.50
2022-10-29T19:38:51.652Z,4.60
2022-10-29T19:41:19.341Z,4.67
2022-10-29T19:43:46.538Z,5.00
2022-10-29T19:46:15.784Z,5.37
2022-10-29T19:48:43.373Z,5.90
2022-10-29T19:51:10.765Z,5.50
2022-10-29T19:53:38.776Z,5.00
2022-10-29T19:56:09.146Z,4.60
2022-10-29T19:58:35.809Z,6.77
2022-10-29T20:01:07.914Z,6.63
2022-10-29T20:03:35.657Z,7.97
2022-10-29T20:06:02.510Z,8.67
2022-10-29T20:08:29.481Z,10.53
2022-10-29T20:11:00.216Z,10.17
2022-10-29T20:13:27.327Z,9.80
2022-10-29T20:15:54.107Z,9.43
2022-10-29T20:18:21.252Z,9.17
2022-10-29T20:20:54.647Z,8.37
2022-10-29T20:23:21.495Z,8.57
2022-10-29T20:25:48.157Z,9.10
2022-10-29T20:28:14.840Z,10.67
2022-10-29T20:30:41.520Z,16.20
2022-10-29T20:33:08.200Z,13.33
2022-10-29T20:35:34.853Z,11.03
2022-10-29T20:38:01.820Z,11.37
2022-10-29T20:40:28.624Z,10.80
2022-10-29T20:42:55.433Z,9.00
2022-10-29T20:45:22.192Z,9.70
2022-10-29T20:47:49.001Z,9.47
2022-10-29T20:50:15.733Z,8.97
2022-10-29T20:52:48.070Z,8.50
2022-10-29T20:55:15.497Z,8.67
2022-10-29T20:57:42.163Z,10.90
2022-10-29T21:00:10.112Z,10.77
2022-10-29T21:02:37.059Z,11.03
2022-10-29T21:05:04.043Z,10.73
2022-10-29T21:07:30.740Z,10.30
2022-10-29T21:09:57.468Z,10.83
2022-10-29T21:12:24.126Z,10.30
2022-10-29T21:14:50.794Z,12.63
2022-10-29T21:17:17.488Z,9.40
2022-10-29T21:19:44.194Z,8.80
2022-10-29T21:22:10.818Z,8.70
2022-10-29T21:24:39.213Z,7.93
2022-10-29T21:27:09.917Z,8.07
2022-10-29T21:29:36.722Z,7.20
2022-10-29T21:32:03.434Z,8.30
2022-10-29T21:34:30.117Z,7.67
2022-10-29T21:36:56.769Z,11.97
2022-10-29T21:39:23.434Z,11.47
2022-10-29T21:41:50.079Z,10.93
2022-10-29T21:44:16.987Z,11.40
2022-10-29T21:46:43.648Z,10.10
2022-10-29T21:49:10.328Z,8.70
2022-10-29T21:51:37.021Z,7.47
2022-10-29T21:54:03.792Z,7.23
2022-10-29T21:56:30.449Z,7.57
2022-10-29T21:58:57.173Z,8.63
2022-10-29T22:01:23.925Z,7.77
2022-10-29T22:03:50.788Z,7.80
2022-10-29T22:06:20.929Z,7.43
2022-10-29T22:08:52.064Z,8.03
2022-10-29T22:11:18.713Z,7.60
2022-10-29T22:13:45.377Z,7.30
2022-10-29T22:16:12.140Z,7.77
2022-10-29T22:18:39.695Z,7.97
2022-10-29T22:21:19.062Z,8.73
2022-10-29T22:23:53.326Z,8.37
2022-10-29T22:26:23.151Z,7.90
2022-10-29T22:28:50.141Z,7.70
2022-10-29T22:31:18.640Z,7.73
2022-10-29T22:33:45.526Z,8.17
2022-10-29T22:36:20.614Z,8.23
2022-10-29T22:38:51.672Z,8.70
2022-10-29T22:41:18.552Z,7.93
2022-10-29T22:43:45.478Z,9.40
2022-10-29T22:46:13.947Z,9.27
2022-10-29T22:48:40.893Z,7.57
2022-10-29T22:51:12.849Z,8.00
2022-10-29T22:53:39.648Z,6.63
2022-10-29T22:56:06.789Z,6.57
2022-10-29T22:58:33.803Z,7.60
2022-10-29T23:01:02.669Z,7.50
2022-10-29T23:03:29.460Z,7.63
2022-10-29T23:05:57.617Z,7.60
2022-10-29T23:08:24.889Z,7.00
2022-10-29T23:10:51.676Z,7.00
2022-10-29T23:13:18.334Z,9.27
2022-10-29T23:15:53.078Z,8.43
2022-10-29T23:18:19.934Z,7.73
2022-10-29T23:20:46.859Z,6.83
2022-10-29T23:23:14.273Z,7.83
2022-10-29T23:25:41.765Z,8.00
2022-10-29T23:28:09.382Z,8.10
2022-10-29T23:30:36.122Z,7.50
2022-10-29T23:33:02.794Z,7.43
2022-10-29T23:35:29.493Z,7.30
2022-10-29T23:37:56.565Z,7.40
2022-10-29T23:40:23.479Z,7.50
2022-10-29T23:42:50.127Z,7.77
2022-10-29T23:45:17.042Z,6.70
2022-10-29T23:47:43.694Z,7.97
2022-10-29T23:50:10.438Z,7.13
2022-10-29T23:52:37.105Z,8.60
2022-10-29T23:55:03.947Z,8.10
2022-10-29T23:57:30.638Z,8.30
2022-10-29T23:59:57.410Z,7.10
